Time;durP1;ratioP1;P1;durP2;ratioP2;P2;SDS_P1;SDS_P2;PMS_P1;PMS_P2;Temp;Humidity;BMP_temperature;BMP_pressure;BME280_temperature;BME280_humidity;BME280_pressure;Samples;Min_cycle;Max_cycle;Signal;HPM_P1;HPM_P2
2022/08/15 04:04:17;;;;;;;2.40;2.20;;;;;;;19.49;77.59;100399.81;5086415;27;20392;-85
2022/08/15 04:06:42;;;;;;;1.48;1.38;;;;;;;19.71;76.34;100407.41;5045004;28;20051;-84
2022/08/15 04:09:08;;;;;;;1.60;1.50;;;;;;;20.03;74.21;100393.13;5070099;28;20024;-84
2022/08/15 04:11:34;;;;;;;4.35;2.42;;;;;;;20.35;72.42;100366.50;5069862;28;20032;-84
2022/08/15 04:13:59;;;;;;;2.40;2.20;;;;;;;20.97;71.28;100403.59;5082278;28;20048;-83
2022/08/15 04:16:25;;;;;;;0.80;0.80;;;;;;;21.42;69.71;100401.78;5053070;28;20028;-83
2022/08/15 04:18:51;;;;;;;2.15;1.95;;;;;;;21.63;69.25;100392.75;5052057;28;20790;-86
2022/08/15 04:21:16;;;;;;;1.13;1.02;;;;;;;21.76;68.65;100380.06;5043326;28;20103;-84
2022/08/15 04:23:43;;;;;;;1.50;1.40;;;;;;;22.07;67.19;100396.25;5086018;28;20513;-85
2022/08/15 04:26:09;;;;;;;1.23;1.13;;;;;;;22.24;66.28;100391.94;5069252;28;20481;-84
2022/08/15 04:28:35;;;;;;;1.80;1.70;;;;;;;22.47;65.43;100403.56;5065761;28;20082;-90
2022/08/15 04:31:03;;;;;;;1.42;1.33;;;;;;;22.42;65.40;100407.66;5052094;28;20074;-91
2022/08/15 04:33:30;;;;;;;1.42;1.33;;;;;;;22.33;64.99;100401.53;5051715;28;20041;-85
2022/08/15 04:36:06;;;;;;;1.88;1.77;;;;;;;22.25;65.46;100401.47;5064740;28;20113;-85
2022/08/15 04:38:32;;;;;;;2.53;2.33;;;;;;;21.96;66.19;100396.50;5069385;28;20028;-89
2022/08/15 04:40:58;;;;;;;1.45;1.35;;;;;;;21.92;66.42;100403.03;5053843;28;20032;-91
2022/08/15 04:43:23;;;;;;;2.28;2.05;;;;;;;21.90;66.83;100411.09;5050424;28;20138;-93
2022/08/15 04:45:49;;;;;;;2.00;1.80;;;;;;;21.70;66.84;100392.00;5052296;28;20028;-86
2022/08/15 04:48:15;;;;;;;1.25;1.15;;;;;;;21.93;66.04;100405.53;5051602;28;20508;-88
2022/08/15 04:50:42;;;;;;;1.92;1.48;;;;;;;22.28;65.06;100409.91;5050699;28;20036;-86
2022/08/15 04:53:07;;;;;;;1.70;1.60;;;;;;;22.53;64.11;100421.41;5074042;28;20116;-85
2022/08/15 04:55:33;;;;;;;2.42;2.22;;;;;;;22.56;63.87;100413.19;5047182;28;20140;-85
2022/08/15 04:57:58;;;;;;;1.10;0.98;;;;;;;22.67;63.09;100419.16;5047529;28;20025;-87
2022/08/15 05:00:27;;;;;;;2.25;2.05;;;;;;;22.77;62.80;100409.31;5050892;28;20429;-84
2022/08/15 05:03:35;;;;;;;1.85;1.75;;;;;;;22.92;62.84;100418.31;5085801;28;20102;-86
2022/08/15 05:06:05;;;;;;;2.55;2.35;;;;;;;23.14;62.08;100425.63;5073830;28;20020;-90
2022/08/15 05:08:33;;;;;;;2.30;2.13;;;;;;;23.06;62.48;100420.31;5070304;28;20493;-94
2022/08/15 05:11:10;;;;;;;2.47;2.28;;;;;;;22.98;62.95;100437.94;5069289;28;20020;-95
2022/08/15 05:13:36;;;;;;;0.98;0.90;;;;;;;22.96;63.48;100432.81;5049794;28;20032;-90
2022/08/15 05:16:04;;;;;;;2.03;1.88;;;;;;;23.14;62.12;100438.00;5041446;28;20070;-91
2022/08/15 05:18:30;;;;;;;2.42;2.17;;;;;;;22.94;63.14;100433.97;5056347;28;20107;-86
2022/08/15 05:20:55;;;;;;;2.53;2.33;;;;;;;22.96;63.35;100430.19;5038523;28;20528;-87
2022/08/15 05:23:22;;;;;;;2.78;2.58;;;;;;;22.95;62.79;100433.81;5040536;28;20086;-85
2022/08/15 05:25:50;;;;;;;1.98;1.88;;;;;;;23.04;63.20;100440.78;5070902;28;20413;-86
2022/08/15 05:28:16;;;;;;;2.05;1.92;;;;;;;23.13;62.89;100439.81;5038606;28;20032;-87
2022/08/15 05:30:41;;;;;;;2.72;2.53;;;;;;;23.06;63.24;100441.44;5054896;28;20028;-87
2022/08/15 05:33:15;;;;;;;2.38;2.17;;;;;;;23.07;63.53;100444.91;5034344;28;20052;-90
2022/08/15 05:35:45;;;;;;;2.15;2.00;;;;;;;23.03;63.13;100447.03;5040973;28;20039;-91
2022/08/15 05:38:16;;;;;;;3.25;2.95;;;;;;;22.99;63.60;100445.69;5055207;28;20082;-95
2022/08/15 05:41:10;;;;;;;1.38;1.27;;;;;;;23.04;63.88;100446.03;5060128;28;20102;-95
2022/08/15 05:44:03;;;;;;;2.70;1.65;;;;;;;23.18;64.07;100452.50;5041334;28;20124;-89
2022/08/15 05:47:02;;;;;;;1.73;1.63;;;;;;;23.08;63.89;100438.63;5072360;28;20060;-85
2022/08/15 05:49:38;;;;;;;2.20;2.03;;;;;;;23.19;63.29;100451.53;5072158;28;20035;-86
2022/08/15 05:52:07;;;;;;;2.08;1.98;;;;;;;23.15;63.54;100458.13;5054434;28;20029;-88
2022/08/15 05:54:40;;;;;;;1.90;1.48;;;;;;;23.29;62.87;100446.09;5056980;28;20028;-93
2022/08/15 05:57:26;;;;;;;1.85;1.75;;;;;;;23.33;63.52;100447.44;5058184;22;20058;-95
2022/08/15 05:59:53;;;;;;;1.80;1.70;;;;;;;23.22;62.95;100422.19;4999510;28;20056;-84
2022/08/15 06:02:45;;;;;;;2.65;2.45;;;;;;;23.42;62.13;100442.03;4997698;28;20039;-89
2022/08/15 06:05:35;;;;;;;4.10;1.75;;;;;;;23.46;62.81;100431.94;5001640;28;20041;-91
2022/08/15 06:08:02;;;;;;;2.47;1.73;;;;;;;23.66;62.74;100443.88;5007532;28;20052;-86
2022/08/15 06:10:38;;;;;;;1.83;1.63;;;;;;;23.56;62.22;100434.44;4998626;28;20079;-93
2022/08/15 06:13:08;;;;;;;2.50;2.30;;;;;;;23.67;62.65;100434.97;4997857;28;20056;-86
2022/08/15 06:15:46;;;;;;;1.65;1.52;;;;;;;23.82;63.24;100431.69;4996588;28;20072;-88
2022/08/15 06:18:12;;;;;;;2.88;2.58;;;;;;;23.98;62.10;100442.22;4983468;28;20025;-88
2022/08/15 06:21:20;;;;;;;2.15;1.95;;;;;;;24.09;61.44;100443.69;4981563;28;20033;-85
2022/08/15 06:24:03;;;;;;;1.73;1.63;;;;;;;24.19;60.48;100436.44;5018868;28;20041;-86
2022/08/15 06:26:54;;;;;;;2.10;2.00;;;;;;;24.15;58.82;100449.16;5029612;28;20108;-86
2022/08/15 06:29:50;;;;;;;2.08;1.88;;;;;;;24.08;59.32;100431.50;4997941;28;20140;-85
2022/08/15 06:32:26;;;;;;;2.20;1.83;;;;;;;24.20;59.07;100443.38;5012194;28;20083;-90
2022/08/15 06:35:08;;;;;;;1.80;1.70;;;;;;;24.31;58.51;100443.88;4996424;28;20065;-85
2022/08/15 06:38:01;;;;;;;2.97;2.40;;;;;;;24.28;58.02;100438.06;4988347;28;20075;-92
2022/08/15 06:41:09;;;;;;;1.70;1.60;;;;;;;24.47;57.92;100442.19;4999219;28;20052;-89
2022/08/15 06:43:34;;;;;;;1.92;1.83;;;;;;;24.47;58.08;100439.53;4970727;28;20042;-90
2022/08/15 06:46:02;;;;;;;1.88;1.73;;;;;;;24.53;57.87;100431.75;5010984;28;20037;-92
2022/08/15 06:48:33;;;;;;;1.52;1.20;;;;;;;24.63;57.66;100436.03;5011835;28;20036;-88
2022/08/15 06:51:00;;;;;;;1.23;1.13;;;;;;;24.57;57.07;100421.66;4996855;28;20026;-84
2022/08/15 06:53:47;;;;;;;2.90;1.90;;;;;;;24.68;57.31;100431.03;4995945;28;20904;-84
2022/08/15 06:56:31;;;;;;;2.33;2.22;;;;;;;24.72;57.01;100424.44;5020598;28;20434;-87
2022/08/15 06:59:21;;;;;;;2.65;2.10;;;;;;;24.85;56.87;100425.50;4977663;28;20114;-85
2022/08/15 07:02:18;;;;;;;1.67;1.58;;;;;;;25.08;56.84;100425.63;4993157;28;20103;-86
2022/08/15 07:04:52;;;;;;;1.20;1.10;;;;;;;25.27;56.01;100439.38;5023020;28;20037;-86
2022/08/15 07:07:54;;;;;;;2.28;1.70;;;;;;;25.22;54.88;100437.28;5005458;28;20057;-87
2022/08/15 07:10:23;;;;;;;1.23;1.13;;;;;;;25.29;55.68;100432.13;5012687;28;20033;-86
2022/08/15 07:13:02;;;;;;;2.30;2.10;;;;;;;25.36;55.90;100433.88;5013521;28;20287;-89
2022/08/15 07:15:56;;;;;;;1.35;1.25;;;;;;;25.50;55.88;100428.81;5026238;28;20056;-88
2022/08/15 07:18:29;;;;;;;1.40;1.08;;;;;;;25.56;54.62;100438.69;5025765;28;20041;-89
2022/08/15 07:21:05;;;;;;;1.23;1.13;;;;;;;25.66;54.71;100423.38;5011648;28;20022;-88
2022/08/15 07:23:31;;;;;;;2.83;2.55;;;;;;;25.64;54.67;100436.00;4999367;28;20034;-90
2022/08/15 07:26:04;;;;;;;1.70;1.38;;;;;;;25.65;53.35;100427.03;4978003;28;20062;-85
2022/08/15 07:28:31;;;;;;;2.72;1.98;;;;;;;25.70;53.95;100414.13;4993460;28;20105;-90
2022/08/15 07:30:59;;;;;;;3.22;2.70;;;;;;;25.92;53.22;100425.69;5009404;28;20030;-88
2022/08/15 07:33:42;;;;;;;1.92;1.83;;;;;;;26.00;53.74;100436.22;5018394;28;20036;-90
2022/08/15 07:36:27;;;;;;;1.92;1.75;;;;;;;26.03;53.50;100435.88;5000720;28;20037;-90
2022/08/15 07:38:54;;;;;;;1.92;1.80;;;;;;;26.02;52.66;100429.75;5001446;28;20088;-92
2022/08/15 07:41:33;;;;;;;1.98;1.83;;;;;;;26.10;53.30;100426.19;4981589;28;20438;-87
2022/08/15 07:44:00;;;;;;;1.92;1.77;;;;;;;26.20;52.79;100424.09;4990691;28;20083;-86
2022/08/15 07:46:37;;;;;;;1.85;1.67;;;;;;;26.27;52.76;100435.63;4994758;28;20042;-86
2022/08/15 07:49:30;;;;;;;1.23;1.13;;;;;;;26.39;52.90;100438.69;4995716;28;20032;-87
2022/08/15 07:52:16;;;;;;;14.90;13.63;;;;;;;26.48;51.69;100439.44;4989705;28;20033;-82
2022/08/15 07:54:41;;;;;;;3.97;3.63;;;;;;;26.63;50.88;100439.41;5012685;28;20033;-89
2022/08/15 07:57:08;;;;;;;3.28;2.08;;;;;;;26.58;52.12;100424.88;5030945;28;20045;-87
2022/08/15 07:59:35;;;;;;;2.38;1.63;;;;;;;26.58;51.66;100426.72;4996574;28;20049;-90
2022/08/15 08:02:17;;;;;;;2.58;2.38;;;;;;;26.73;51.37;100432.81;4978364;28;20032;-92
2022/08/15 08:04:43;;;;;;;2.70;1.90;;;;;;;26.90;51.57;100443.22;5003619;28;20120;-91
2022/08/15 08:07:19;;;;;;;1.08;0.98;;;;;;;26.93;50.65;100440.19;4996956;28;20079;-85
2022/08/15 08:09:47;;;;;;;1.50;1.40;;;;;;;26.95;50.61;100427.59;4978052;28;20403;-85
2022/08/15 08:12:34;;;;;;;1.60;1.50;;;;;;;27.12;51.09;100437.81;5005801;28;20029;-85
2022/08/15 08:15:12;;;;;;;2.40;2.20;;;;;;;27.17;50.77;100439.09;4985549;28;20872;-85
2022/08/15 08:17:56;;;;;;;4.55;3.50;;;;;;;27.26;49.79;100451.25;4980850;28;20139;-91
2022/08/15 08:20:41;;;;;;;3.03;2.72;;;;;;;27.28;49.56;100443.91;5015932;28;20301;-89
2022/08/15 08:23:19;;;;;;;4.22;3.45;;;;;;;27.44;50.21;100446.34;4984631;28;20105;-88
2022/08/15 08:26:13;;;;;;;1.38;1.23;;;;;;;27.35;49.38;100452.78;5014108;28;20053;-91
2022/08/15 08:28:57;;;;;;;1.77;1.45;;;;;;;27.42;49.33;100448.34;5028474;28;20056;-89
2022/08/15 08:31:30;;;;;;;2.15;1.95;;;;;;;27.46;49.45;100439.00;5027005;28;20443;-87
2022/08/15 08:34:06;;;;;;;2.67;2.47;;;;;;;27.65;49.19;100449.03;5009996;28;20406;-85
2022/08/15 08:36:44;;;;;;;1.15;1.05;;;;;;;27.70;48.61;100454.56;5014914;28;20029;-92
2022/08/15 08:39:19;;;;;;;2.60;2.17;;;;;;;27.76;49.06;100449.53;5010512;28;20037;-84
2022/08/15 08:41:53;;;;;;;4.20;3.80;;;;;;;27.89;49.56;100450.44;5025985;28;20053;-93
2022/08/15 08:44:27;;;;;;;8.77;7.95;;;;;;;27.96;49.24;100445.19;5027390;28;20030;-87
2022/08/15 08:47:11;;;;;;;1.73;1.52;;;;;;;28.04;49.19;100450.38;5030187;28;20105;-90
2022/08/15 08:49:57;;;;;;;2.17;1.98;;;;;;;28.21;48.05;100449.03;5030566;28;20029;-86
2022/08/15 08:52:43;;;;;;;1.50;1.40;;;;;;;28.32;47.84;100438.91;5031831;28;20037;-91
2022/08/15 08:55:16;;;;;;;2.45;2.03;;;;;;;28.19;47.75;100439.63;4998304;28;20060;-88
2022/08/15 08:57:47;;;;;;;2.40;2.17;;;;;;;28.26;48.22;100436.00;4997993;28;20141;-91
2022/08/15 09:00:18;;;;;;;2.83;2.20;;;;;;;28.25;47.34;100444.19;4999157;28;20612;-92
2022/08/15 09:03:10;;;;;;;1.50;1.40;;;;;;;28.42;47.31;100439.41;5000610;28;20037;-91
2022/08/15 09:05:51;;;;;;;2.30;2.13;;;;;;;28.48;47.16;100438.63;4996686;28;20030;-90
2022/08/15 09:08:32;;;;;;;1.45;1.35;;;;;;;28.37;47.25;100423.19;4982440;28;20124;-86
2022/08/15 09:11:12;;;;;;;2.00;1.80;;;;;;;28.58;46.54;100431.91;5021982;28;20072;-89
2022/08/15 09:13:43;;;;;;;1.45;1.35;;;;;;;28.52;46.46;100400.78;5030064;28;20063;-86
2022/08/15 09:16:14;;;;;;;2.65;2.08;;;;;;;28.90;46.08;100436.78;5012424;28;20029;-89
2022/08/15 09:19:06;;;;;;;2.50;2.30;;;;;;;28.83;45.87;100440.22;5014109;28;20112;-88
2022/08/15 09:21:32;;;;;;;2.35;2.15;;;;;;;29.00;46.08;100434.56;5031155;28;20025;-87
2022/08/15 09:23:58;;;;;;;3.03;2.83;;;;;;;29.09;46.20;100428.03;4996140;28;20115;-87
2022/08/15 09:26:41;;;;;;;1.92;1.73;;;;;;;29.18;45.97;100437.50;5013419;28;20022;-93
2022/08/15 09:29:21;;;;;;;1.55;1.45;;;;;;;29.32;45.10;100436.53;5031356;28;20048;-92
2022/08/15 09:32:18;;;;;;;2.03;1.27;;;;;;;29.22;46.15;100441.41;5013849;28;20189;-90
2022/08/15 09:35:20;;;;;;;2.33;2.13;;;;;;;29.51;44.70;100428.81;5013167;28;20030;-93
2022/08/15 09:38:05;;;;;;;2.03;1.75;;;;;;;29.56;44.50;100431.66;4999063;28;20110;-88
2022/08/15 09:40:39;;;;;;;2.63;2.42;;;;;;;29.50;44.30;100432.47;4996396;28;20104;-87
2022/08/15 09:43:29;;;;;;;2.42;2.15;;;;;;;29.72;44.83;100428.59;5029310;28;21177;-93
2022/08/15 09:45:57;;;;;;;2.97;2.20;;;;;;;29.65;44.39;100409.13;5030512;28;20049;-91
2022/08/15 09:48:47;;;;;;;3.00;2.67;;;;;;;29.75;43.76;100419.38;5031100;28;20017;-87
2022/08/15 09:51:37;;;;;;;2.47;2.28;;;;;;;29.54;43.23;100404.41;4998232;28;20103;-86
2022/08/15 09:54:23;;;;;;;3.05;2.75;;;;;;;29.60;43.94;100398.25;5015542;28;20033;-86
2022/08/15 09:57:10;;;;;;;2.45;2.22;;;;;;;29.76;43.71;100411.16;4998515;28;20049;-84
2022/08/15 09:59:35;;;;;;;2.60;2.10;;;;;;;29.86;43.53;100419.56;4986307;28;20124;-85
2022/08/15 10:02:20;;;;;;;2.03;1.48;;;;;;;30.04;43.05;100413.59;4996864;28;20475;-87
2022/08/15 10:04:49;;;;;;;3.15;2.60;;;;;;;30.11;43.16;100400.31;5011098;28;20041;-85
2022/08/15 10:07:15;;;;;;;2.78;2.47;;;;;;;30.20;43.32;100415.06;5011506;28;20022;-85
2022/08/15 10:09:59;;;;;;;2.63;2.28;;;;;;;30.18;42.36;100415.25;5011502;28;20030;-88
2022/08/15 10:12:24;;;;;;;1.98;1.83;;;;;;;30.32;41.02;100407.22;5012122;28;20026;-87
2022/08/15 10:14:53;;;;;;;2.05;1.73;;;;;;;30.67;41.49;100410.41;4994836;28;20399;-84
2022/08/15 10:17:34;;;;;;;2.70;2.13;;;;;;;30.82;40.57;100406.47;5011498;28;20092;-93
2022/08/15 10:20:16;;;;;;;1.77;1.42;;;;;;;31.09;41.19;100414.34;4996024;28;20545;-89
2022/08/15 10:22:56;;;;;;;1.92;1.83;;;;;;;31.11;39.69;100396.22;5011724;28;20026;-83
2022/08/15 10:25:41;;;;;;;2.65;2.35;;;;;;;31.13;40.26;100408.34;4994148;28;20045;-86
2022/08/15 10:28:10;;;;;;;2.28;2.08;;;;;;;31.13;38.75;100397.66;4961616;28;20061;-86
2022/08/15 10:30:38;;;;;;;3.67;2.95;;;;;;;30.98;38.19;100397.13;5009804;28;20022;-87
2022/08/15 10:33:28;;;;;;;2.75;2.55;;;;;;;30.83;38.86;100408.09;5025405;28;20448;-86
2022/08/15 10:36:13;;;;;;;1.67;1.58;;;;;;;30.88;39.15;100396.78;5004377;28;20458;-85
2022/08/15 10:38:45;;;;;;;3.13;2.83;;;;;;;30.84;39.36;100398.22;5015959;28;20032;-87
2022/08/15 10:41:21;;;;;;;2.25;2.05;;;;;;;30.58;38.47;100355.59;4997632;28;20045;-86
2022/08/15 10:43:51;;;;;;;1.48;1.38;;;;;;;30.85;37.86;100383.84;4996850;28;20064;-83
2022/08/15 10:46:54;;;;;;;1.58;1.45;;;;;;;31.00;37.31;100386.25;4995196;28;20025;-85
2022/08/15 10:49:25;;;;;;;2.70;2.47;;;;;;;31.12;37.73;100385.31;5029699;28;20908;-89
2022/08/15 10:52:10;;;;;;;1.58;1.48;;;;;;;31.13;36.47;100381.63;5030632;28;20116;-86
2022/08/15 10:55:00;;;;;;;2.50;2.00;;;;;;;31.11;37.02;100356.97;5012394;28;20038;-92
2022/08/15 10:57:27;;;;;;;1.33;1.23;;;;;;;31.38;37.17;100373.69;5012473;28;20052;-90
2022/08/15 10:59:54;;;;;;;2.42;2.22;;;;;;;31.30;37.87;100367.78;4996689;28;20021;-88
2022/08/15 11:02:41;;;;;;;1.38;1.27;;;;;;;31.37;36.50;100363.22;4997221;28;20108;-93
2022/08/15 11:05:17;;;;;;;2.38;1.95;;;;;;;31.61;36.64;100366.91;5016619;28;20072;-91
2022/08/15 11:07:50;;;;;;;3.53;2.50;;;;;;;31.69;35.90;100370.13;4980066;28;20103;-87
2022/08/15 11:10:17;;;;;;;1.95;1.75;;;;;;;31.73;35.33;100367.81;4996711;28;20475;-81
2022/08/15 11:12:48;;;;;;;2.28;1.63;;;;;;;31.77;34.49;100345.00;4997370;28;20022;-87
2022/08/15 11:15:20;;;;;;;2.00;1.60;;;;;;;32.09;33.37;100353.72;4996931;28;20096;-85
2022/08/15 11:17:49;;;;;;;3.03;2.17;;;;;;;32.21;33.80;100351.94;4996215;28;20048;-84
2022/08/15 11:20:17;;;;;;;2.05;1.55;;;;;;;32.15;34.36;100352.84;5011354;28;20041;-93
2022/08/15 11:22:58;;;;;;;2.58;2.28;;;;;;;32.25;34.77;100353.13;5013304;28;20036;-90
2022/08/15 11:25:32;;;;;;;1.67;1.58;;;;;;;32.20;33.41;100339.59;4996472;28;20032;-88
2022/08/15 11:28:10;;;;;;;2.05;1.70;;;;;;;32.23;34.02;100349.03;4979962;28;20090;-92
2022/08/15 11:30:37;;;;;;;3.25;2.47;;;;;;;32.22;33.42;100332.16;5013465;28;20025;-90
2022/08/15 11:33:26;;;;;;;3.05;1.98;;;;;;;32.31;33.65;100340.72;4997228;28;20045;-89
2022/08/15 11:36:04;;;;;;;1.73;1.50;;;;;;;32.74;33.25;100340.59;4996953;28;20086;-92
2022/08/15 11:38:34;;;;;;;2.33;1.73;;;;;;;32.84;33.17;100328.53;5013593;28;20167;-81
2022/08/15 11:41:00;;;;;;;1.85;1.73;;;;;;;32.66;31.97;100324.03;4996237;28;20438;-81
2022/08/15 11:43:26;;;;;;;1.90;1.73;;;;;;;32.36;32.81;100302.59;4979474;28;20032;-89
2022/08/15 11:45:52;;;;;;;2.13;1.92;;;;;;;32.52;33.34;100308.13;4995789;28;20037;-87
2022/08/15 11:48:29;;;;;;;1.73;1.25;;;;;;;32.48;31.90;100324.88;4979522;28;20026;-85
2022/08/15 11:50:58;;;;;;;2.30;1.75;;;;;;;32.53;31.86;100316.97;4980179;28;20108;-90
2022/08/15 11:53:27;;;;;;;1.60;1.50;;;;;;;32.81;30.89;100319.88;4980063;28;20021;-83
2022/08/15 11:55:52;;;;;;;1.80;1.58;;;;;;;33.00;31.31;100314.47;4979507;28;20481;-84
2022/08/15 11:58:29;;;;;;;1.20;1.10;;;;;;;32.82;32.29;100312.66;4995443;28;20486;-83
2022/08/15 12:00:58;;;;;;;2.75;2.10;;;;;;;32.76;30.78;100317.06;4979933;28;20525;-83
2022/08/15 12:03:34;;;;;;;2.85;2.20;;;;;;;32.43;31.37;100301.44;4980137;28;20034;-84
2022/08/15 12:06:12;;;;;;;2.25;1.40;;;;;;;32.60;30.60;100323.06;4995996;28;20030;-85
2022/08/15 12:08:37;;;;;;;1.85;1.65;;;;;;;32.62;31.05;100304.91;5028194;28;20021;-90
2022/08/15 12:11:12;;;;;;;2.38;2.05;;;;;;;32.88;32.03;100319.00;4979403;28;20037;-85
2022/08/15 12:13:37;;;;;;;2.30;1.77;;;;;;;32.87;30.97;100322.72;5029494;28;20029;-87
2022/08/15 12:16:03;;;;;;;2.88;2.28;;;;;;;32.65;30.89;100320.53;4979977;28;20052;-91
2022/08/15 12:18:33;;;;;;;1.65;1.33;;;;;;;32.56;30.93;100308.50;4979784;28;20506;-85
2022/08/15 12:20:59;;;;;;;2.08;1.40;;;;;;;32.81;30.82;100325.22;5029297;28;20029;-86
2022/08/15 12:23:43;;;;;;;2.80;2.55;;;;;;;32.94;31.48;100318.91;5011670;28;20115;-92
2022/08/15 12:26:13;;;;;;;2.35;1.95;;;;;;;33.45;29.33;100297.91;5015370;28;20031;-85
2022/08/15 12:28:39;;;;;;;1.90;1.70;;;;;;;33.57;29.68;100296.03;5003588;28;20125;-93
2022/08/15 12:33:32;;;;;;;1.95;1.55;;;;;;;33.16;31.11;100295.06;5012347;28;20090;-88
2022/08/15 12:35:58;;;;;;;1.67;1.45;;;;;;;33.30;30.84;100303.69;4981675;28;20034;-94
2022/08/15 12:38:24;;;;;;;1.42;1.27;;;;;;;33.24;30.29;100292.03;4962915;28;20029;-90
2022/08/15 12:40:50;;;;;;;1.95;1.75;;;;;;;33.29;30.28;100285.97;4973501;28;20176;-91
2022/08/15 12:45:51;;;;;;;1.45;1.30;;;;;;;33.10;30.30;100266.50;5027272;22;20064;-88
2022/08/15 12:48:23;;;;;;;1.58;1.40;;;;;;;33.12;30.96;100277.78;5017762;28;20045;-90
2022/08/15 12:50:49;;;;;;;2.58;2.10;;;;;;;33.12;30.61;100276.97;5018720;28;20112;-88
2022/08/15 12:53:15;;;;;;;2.47;1.30;;;;;;;32.96;30.64;100265.09;5018342;28;20028;-88
2022/08/15 12:55:41;;;;;;;1.45;1.23;;;;;;;33.11;30.31;100260.09;5051667;28;20090;-88
2022/08/15 12:58:08;;;;;;;1.92;1.75;;;;;;;32.84;30.06;100272.25;5037225;28;20052;-89
2022/08/15 13:00:34;;;;;;;1.92;1.73;;;;;;;32.77;31.15;100267.81;5061578;28;20508;-90
2022/08/15 13:03:05;;;;;;;1.52;1.35;;;;;;;32.83;30.97;100260.72;5036009;28;20085;-93
2022/08/15 13:05:31;;;;;;;2.03;1.40;;;;;;;32.96;30.98;100268.59;5035732;28;20025;-89
2022/08/15 13:07:57;;;;;;;2.58;1.90;;;;;;;32.96;31.61;100273.13;5035249;28;20041;-85
2022/08/15 13:10:22;;;;;;;2.50;1.70;;;;;;;32.94;30.10;100261.81;5035713;28;20116;-91
2022/08/15 13:12:48;;;;;;;2.85;2.30;;;;;;;32.92;30.15;100264.72;5034782;28;20393;-87
2022/08/15 13:15:14;;;;;;;2.85;2.08;;;;;;;32.94;30.04;100249.25;5035438;28;20111;-84
2022/08/15 13:17:39;;;;;;;2.50;1.88;;;;;;;32.90;30.62;100236.53;5051612;28;20021;-82
2022/08/15 13:25:33;;;;;;;2.30;1.60;;;;;;;33.09;29.85;100251.47;5037331;28;20094;-83
2022/08/15 13:27:59;;;;;;;2.33;1.83;;;;;;;32.96;30.51;100239.09;5034737;28;20025;-85
2022/08/15 13:30:24;;;;;;;2.50;1.40;;;;;;;33.00;30.15;100244.81;5051373;28;20383;-86
2022/08/15 13:32:50;;;;;;;4.05;2.97;;;;;;;32.96;29.10;100257.88;5053012;28;20478;-89
2022/08/15 13:35:19;;;;;;;4.15;3.13;;;;;;;32.85;29.84;100260.53;5034828;28;20059;-88
2022/08/15 13:37:47;;;;;;;2.97;2.10;;;;;;;32.84;29.74;100254.31;5035129;28;20544;-94
2022/08/15 13:40:16;;;;;;;1.70;1.52;;;;;;;32.79;30.32;100240.78;5035174;28;20028;-83
2022/08/15 13:42:42;;;;;;;4.72;1.95;;;;;;;32.72;30.42;100235.53;5051371;28;20234;-84
2022/08/15 13:45:09;;;;;;;2.70;1.88;;;;;;;32.66;29.99;100228.44;5050567;28;20047;-85
2022/08/15 13:47:34;;;;;;;3.67;1.85;;;;;;;32.60;29.23;100233.88;5051497;28;20072;-86
2022/08/15 13:50:00;;;;;;;2.67;1.90;;;;;;;32.60;28.65;100242.72;5017774;28;20057;-90
2022/08/15 13:52:26;;;;;;;2.80;1.77;;;;;;;32.54;29.50;100240.94;5051524;28;20025;-88
2022/08/15 13:54:52;;;;;;;2.20;1.38;;;;;;;32.47;30.00;100258.97;5050510;28;20064;-88
2022/08/15 13:57:19;;;;;;;4.22;2.28;;;;;;;32.33;30.23;100242.28;5016220;28;20079;-83
2022/08/15 13:59:45;;;;;;;2.90;2.30;;;;;;;32.27;31.30;100253.88;5049216;28;20024;-88
2022/08/15 14:02:11;;;;;;;2.22;1.80;;;;;;;32.33;32.08;100258.34;5048664;28;20047;-85
2022/08/15 14:04:38;;;;;;;2.47;1.98;;;;;;;32.22;31.94;100243.81;5015612;28;20386;-83
2022/08/15 14:07:05;;;;;;;1.90;1.60;;;;;;;32.22;32.60;100259.88;5049543;28;20029;-84
2022/08/15 14:09:30;;;;;;;3.58;2.75;;;;;;;32.14;32.11;100228.06;5031107;28;20033;-85
2022/08/15 14:11:56;;;;;;;2.65;1.98;;;;;;;32.24;32.21;100236.38;5030730;28;20028;-85
2022/08/15 14:14:22;;;;;;;2.20;1.70;;;;;;;32.38;31.24;100266.50;5030496;28;20413;-83
2022/08/15 14:16:48;;;;;;;3.05;2.13;;;;;;;32.34;31.20;100257.28;5014842;28;20026;-86
2022/08/15 14:19:15;;;;;;;1.98;1.65;;;;;;;32.35;31.63;100240.22;5023993;28;20112;-84
2022/08/15 14:21:41;;;;;;;3.30;2.20;;;;;;;32.54;32.35;100267.72;5018887;28;20025;-88
2022/08/15 14:24:07;;;;;;;2.70;1.83;;;;;;;32.55;31.65;100264.03;5032232;28;20032;-92
2022/08/15 14:26:35;;;;;;;2.42;1.90;;;;;;;32.53;30.26;100263.41;5022866;28;20414;-90
2022/08/15 14:29:01;;;;;;;3.75;2.50;;;;;;;32.45;31.95;100261.09;5034017;28;20553;-85
2022/08/15 14:31:27;;;;;;;2.85;2.00;;;;;;;32.50;31.57;100258.53;5017843;28;20417;-82
2022/08/15 14:33:54;;;;;;;2.75;2.30;;;;;;;32.38;31.77;100242.41;5040846;28;20149;-84
2022/08/15 14:36:19;;;;;;;3.17;2.63;;;;;;;32.33;31.67;100257.50;5011592;28;20101;-85
2022/08/15 14:38:45;;;;;;;3.58;2.58;;;;;;;32.38;31.85;100260.34;5019983;28;20541;-85
2022/08/15 14:41:10;;;;;;;2.47;1.92;;;;;;;32.40;31.74;100272.44;5029928;28;20037;-85
2022/08/15 14:43:37;;;;;;;2.75;2.08;;;;;;;32.36;32.05;100265.94;5028751;28;20029;-85
2022/08/15 14:46:04;;;;;;;3.92;2.90;;;;;;;32.31;31.17;100279.16;5029309;28;20092;-85
2022/08/15 14:48:32;;;;;;;3.80;2.95;;;;;;;32.23;31.51;100264.19;5011254;28;20025;-85
2022/08/15 14:50:58;;;;;;;2.63;1.90;;;;;;;32.00;32.16;100250.72;5028544;28;20104;-84
2022/08/15 14:53:26;;;;;;;2.88;2.08;;;;;;;31.94;32.42;100271.13;5012105;28;20112;-84
2022/08/15 14:55:52;;;;;;;2.40;1.95;;;;;;;32.04;31.13;100283.97;4995573;28;20030;-84
2022/08/15 14:58:18;;;;;;;3.10;2.53;;;;;;;32.01;30.50;100289.78;5045024;28;20044;-84
2022/08/15 15:00:45;;;;;;;2.28;2.05;;;;;;;31.95;31.31;100270.09;4995656;28;20273;-83
2022/08/15 15:03:12;;;;;;;3.10;2.08;;;;;;;32.07;31.92;100291.59;5029988;28;20044;-84
2022/08/15 15:05:37;;;;;;;2.92;2.50;;;;;;;32.06;32.39;100289.13;5014039;28;20068;-83
2022/08/15 15:08:03;;;;;;;2.95;2.35;;;;;;;31.95;32.43;100285.31;5046734;28;20601;-84
2022/08/15 15:10:30;;;;;;;2.72;1.92;;;;;;;31.93;32.83;100287.41;5013439;28;20060;-83
2022/08/15 15:12:58;;;;;;;2.53;1.98;;;;;;;31.95;32.62;100282.66;5030258;28;20478;-84
2022/08/15 15:15:24;;;;;;;3.15;2.35;;;;;;;32.06;33.73;100297.97;4997688;28;20026;-83
2022/08/15 15:17:51;;;;;;;2.33;1.98;;;;;;;32.04;32.86;100291.19;5013998;28;20403;-84
2022/08/15 15:20:16;;;;;;;2.88;2.47;;;;;;;32.03;32.14;100301.06;4997468;28;20037;-84
2022/08/15 15:22:44;;;;;;;2.97;2.40;;;;;;;32.13;33.04;100301.38;4997138;28;20037;-84
2022/08/15 15:25:10;;;;;;;2.40;1.85;;;;;;;32.03;33.00;100281.53;4997340;28;20033;-84
2022/08/15 15:27:36;;;;;;;3.38;2.20;;;;;;;31.95;33.40;100288.81;5029950;28;20021;-83
2022/08/15 15:30:02;;;;;;;4.07;3.08;;;;;;;32.01;33.53;100307.69;5013601;28;20037;-83
2022/08/15 15:32:28;;;;;;;3.47;2.28;;;;;;;31.87;33.32;100296.34;5013493;28;20478;-84
2022/08/15 15:34:53;;;;;;;2.38;1.88;;;;;;;31.83;32.93;100305.84;5029912;28;20030;-83
2022/08/15 15:37:19;;;;;;;2.35;1.75;;;;;;;31.81;32.71;100308.72;5013700;28;20025;-84
2022/08/15 15:39:44;;;;;;;3.25;2.05;;;;;;;31.62;32.78;100307.84;5013418;28;20048;-83
2022/08/15 15:42:10;;;;;;;2.58;1.90;;;;;;;31.68;32.82;100317.69;5013420;28;20112;-84
2022/08/15 15:44:36;;;;;;;3.03;2.17;;;;;;;31.61;32.98;100308.91;5013135;28;20494;-83
2022/08/15 15:47:05;;;;;;;3.33;2.72;;;;;;;31.47;33.95;100298.56;5013005;28;20503;-83
2022/08/15 15:49:36;;;;;;;2.35;2.03;;;;;;;31.33;32.99;100281.81;5013238;28;20026;-83
2022/08/15 15:52:03;;;;;;;2.00;1.45;;;;;;;31.41;33.72;100313.63;5029705;28;20095;-83
2022/08/15 15:54:28;;;;;;;2.03;1.80;;;;;;;31.27;33.92;100304.91;5012867;28;20147;-83
2022/08/15 15:56:54;;;;;;;2.30;1.88;;;;;;;31.15;34.08;100293.22;5029375;28;20109;-83
2022/08/15 15:59:19;;;;;;;4.53;2.30;;;;;;;31.09;34.13;100302.13;5029285;28;20156;-83
2022/08/15 16:01:46;;;;;;;3.97;2.40;;;;;;;30.97;34.61;100298.50;5013034;28;20041;-83
2022/08/15 16:04:12;;;;;;;3.10;2.60;;;;;;;30.98;35.00;100303.66;5013224;28;20053;-83